sensor_id;sensor_type;location;lat;lon;timestamp;P1;durP1;ratioP1;P2;durP2;ratioP2
7539;SDS011;3811;49.006;12.076;2023-08-06T00:01:56;15.87;;;14.03;;
7539;SDS011;3811;49.006;12.076;2023-08-06T00:04:23;16.50;;;13.57;;
7539;SDS011;3811;49.006;12.076;2023-08-06T00:06:50;18.17;;;14.10;;
7539;SDS011;3811;49.006;12.076;2023-08-06T00:09:17;16.80;;;14.47;;
7539;SDS011;3811;49.006;12.076;2023-08-06T00:11:45;18.70;;;14.30;;
7539;SDS011;3811;49.006;12.076;2023-08-06T00:14:12;15.53;;;13.83;;
7539;SDS011;3811;49.006;12.076;2023-08-06T00:16:42;18.47;;;14.63;;
7539;SDS011;3811;49.006;12.076;2023-08-06T00:19:12;17.93;;;15.23;;
7539;SDS011;3811;49.006;12.076;2023-08-06T00:21:39;19.30;;;15.23;;
7539;SDS011;3811;49.006;12.076;2023-08-06T00:24:06;17.20;;;14.07;;
7539;SDS011;3811;49.006;12.076;2023-08-06T00:26:33;16.27;;;14.03;;
7539;SDS011;3811;49.006;12.076;2023-08-06T00:29:00;14.90;;;13.10;;
7539;SDS011;3811;49.006;12.076;2023-08-06T00:31:28;14.40;;;11.77;;
7539;SDS011;3811;49.006;12.076;2023-08-06T00:33:55;16.20;;;12.63;;
7539;SDS011;3811;49.006;12.076;2023-08-06T00:36:24;14.13;;;12.60;;
7539;SDS011;3811;49.006;12.076;2023-08-06T00:38:51;13.83;;;12.43;;
7539;SDS011;3811;49.006;12.076;2023-08-06T00:41:18;14.67;;;12.67;;
7539;SDS011;3811;49.006;12.076;2023-08-06T00:43:45;13.70;;;12.30;;
7539;SDS011;3811;49.006;12.076;2023-08-06T00:46:12;15.27;;;13.40;;
7539;SDS011;3811;49.006;12.076;2023-08-06T00:48:40;14.03;;;12.53;;
7539;SDS011;3811;49.006;12.076;2023-08-06T00:51:09;12.80;;;11.50;;
7539;SDS011;3811;49.006;12.076;2023-08-06T00:53:38;12.77;;;11.47;;
7539;SDS011;3811;49.006;12.076;2023-08-06T00:56:06;14.27;;;10.93;;
7539;SDS011;3811;49.006;12.076;2023-08-06T00:58:33;11.93;;;10.70;;
7539;SDS011;3811;49.006;12.076;2023-08-06T01:01:01;12.37;;;11.07;;
7539;SDS011;3811;49.006;12.076;2023-08-06T01:03:28;11.70;;;10.60;;
7539;SDS011;3811;49.006;12.076;2023-08-06T01:05:55;11.47;;;10.27;;
7539;SDS011;3811;49.006;12.076;2023-08-06T01:08:27;11.30;;;9.43;;
7539;SDS011;3811;49.006;12.076;2023-08-06T01:11:02;11.43;;;10.00;;
7539;SDS011;3811;49.006;12.076;2023-08-06T01:13:41;11.53;;;9.83;;
7539;SDS011;3811;49.006;12.076;2023-08-06T01:16:11;9.93;;;8.93;;
7539;SDS011;3811;49.006;12.076;2023-08-06T01:18:42;9.10;;;8.30;;
7539;SDS011;3811;49.006;12.076;2023-08-06T01:21:13;11.67;;;9.40;;
7539;SDS011;3811;49.006;12.076;2023-08-06T01:23:40;9.63;;;8.63;;
7539;SDS011;3811;49.006;12.076;2023-08-06T01:26:10;10.00;;;8.80;;
7539;SDS011;3811;49.006;12.076;2023-08-06T01:28:51;8.33;;;7.50;;
7539;SDS011;3811;49.006;12.076;2023-08-06T01:31:24;8.30;;;7.40;;
7539;SDS011;3811;49.006;12.076;2023-08-06T01:33:54;7.60;;;6.90;;
7539;SDS011;3811;49.006;12.076;2023-08-06T01:36:24;5.70;;;5.20;;
7539;SDS011;3811;49.006;12.076;2023-08-06T01:38:51;6.27;;;5.03;;
7539;SDS011;3811;49.006;12.076;2023-08-06T01:41:19;4.10;;;3.77;;
7539;SDS011;3811;49.006;12.076;2023-08-06T01:43:46;3.90;;;3.57;;
7539;SDS011;3811;49.006;12.076;2023-08-06T01:46:13;3.57;;;3.27;;
7539;SDS011;3811;49.006;12.076;2023-08-06T01:48:41;3.63;;;3.33;;
7539;SDS011;3811;49.006;12.076;2023-08-06T01:51:08;2.77;;;2.57;;
7539;SDS011;3811;49.006;12.076;2023-08-06T01:53:36;2.80;;;2.60;;
7539;SDS011;3811;49.006;12.076;2023-08-06T01:56:04;2.83;;;2.50;;
7539;SDS011;3811;49.006;12.076;2023-08-06T01:58:30;3.30;;;2.63;;
7539;SDS011;3811;49.006;12.076;2023-08-06T02:00:58;4.53;;;3.10;;
7539;SDS011;3811;49.006;12.076;2023-08-06T02:03:25;2.73;;;2.50;;
7539;SDS011;3811;49.006;12.076;2023-08-06T02:05:52;3.03;;;2.83;;
7539;SDS011;3811;49.006;12.076;2023-08-06T02:08:20;3.20;;;2.60;;
7539;SDS011;3811;49.006;12.076;2023-08-06T02:10:48;3.40;;;3.10;;
7539;SDS011;3811;49.006;12.076;2023-08-06T02:13:16;2.67;;;2.47;;
7539;SDS011;3811;49.006;12.076;2023-08-06T02:15:43;3.33;;;2.83;;
7539;SDS011;3811;49.006;12.076;2023-08-06T02:18:12;3.80;;;2.93;;
7539;SDS011;3811;49.006;12.076;2023-08-06T02:20:40;3.30;;;3.00;;
7539;SDS011;3811;49.006;12.076;2023-08-06T02:23:07;3.47;;;3.17;;
7539;SDS011;3811;49.006;12.076;2023-08-06T02:25:34;3.50;;;3.20;;
7539;SDS011;3811;49.006;12.076;2023-08-06T02:28:03;3.40;;;3.10;;
7539;SDS011;3811;49.006;12.076;2023-08-06T02:30:30;3.30;;;3.03;;
7539;SDS011;3811;49.006;12.076;2023-08-06T02:32:58;2.93;;;2.73;;
7539;SDS011;3811;49.006;12.076;2023-08-06T02:35:26;4.27;;;2.90;;
7539;SDS011;3811;49.006;12.076;2023-08-06T02:37:53;3.80;;;3.50;;
7539;SDS011;3811;49.006;12.076;2023-08-06T02:40:21;3.13;;;2.93;;
7539;SDS011;3811;49.006;12.076;2023-08-06T02:42:48;3.43;;;3.00;;
7539;SDS011;3811;49.006;12.076;2023-08-06T02:45:17;3.30;;;3.00;;
7539;SDS011;3811;49.006;12.076;2023-08-06T02:47:44;3.20;;;3.00;;
7539;SDS011;3811;49.006;12.076;2023-08-06T02:50:11;3.80;;;3.37;;
7539;SDS011;3811;49.006;12.076;2023-08-06T02:52:38;4.40;;;3.40;;
7539;SDS011;3811;49.006;12.076;2023-08-06T02:55:07;3.83;;;3.50;;
7539;SDS011;3811;49.006;12.076;2023-08-06T02:57:39;3.60;;;3.30;;
7539;SDS011;3811;49.006;12.076;2023-08-06T03:00:06;3.40;;;3.10;;
7539;SDS011;3811;49.006;12.076;2023-08-06T03:02:35;4.07;;;3.60;;
7539;SDS011;3811;49.006;12.076;2023-08-06T03:05:17;6.10;;;3.70;;
7539;SDS011;3811;49.006;12.076;2023-08-06T03:07:46;4.97;;;3.77;;
7539;SDS011;3811;49.006;12.076;2023-08-06T03:10:19;4.07;;;3.67;;
7539;SDS011;3811;49.006;12.076;2023-08-06T03:12:49;5.67;;;3.57;;
7539;SDS011;3811;49.006;12.076;2023-08-06T03:15:18;3.90;;;3.60;;
7539;SDS011;3811;49.006;12.076;2023-08-06T03:17:47;4.23;;;3.83;;
7539;SDS011;3811;49.006;12.076;2023-08-06T03:20:18;4.20;;;3.90;;
7539;SDS011;3811;49.006;12.076;2023-08-06T03:22:45;4.17;;;3.77;;
7539;SDS011;3811;49.006;12.076;2023-08-06T03:25:13;4.40;;;3.60;;
7539;SDS011;3811;49.006;12.076;2023-08-06T03:27:44;3.70;;;3.40;;
7539;SDS011;3811;49.006;12.076;2023-08-06T03:30:13;3.93;;;3.50;;
7539;SDS011;3811;49.006;12.076;2023-08-06T03:32:40;4.10;;;3.80;;
7539;SDS011;3811;49.006;12.076;2023-08-06T03:35:09;4.17;;;3.77;;
7539;SDS011;3811;49.006;12.076;2023-08-06T03:37:36;4.93;;;3.80;;
7539;SDS011;3811;49.006;12.076;2023-08-06T03:40:05;4.10;;;3.70;;
7539;SDS011;3811;49.006;12.076;2023-08-06T03:42:33;4.87;;;4.10;;
7539;SDS011;3811;49.006;12.076;2023-08-06T03:45:01;4.90;;;4.17;;
7539;SDS011;3811;49.006;12.076;2023-08-06T03:47:29;5.13;;;4.60;;
7539;SDS011;3811;49.006;12.076;2023-08-06T03:49:56;5.87;;;4.27;;
7539;SDS011;3811;49.006;12.076;2023-08-06T03:52:25;4.80;;;4.40;;
7539;SDS011;3811;49.006;12.076;2023-08-06T03:54:52;4.70;;;4.27;;
7539;SDS011;3811;49.006;12.076;2023-08-06T03:57:21;4.60;;;4.10;;
7539;SDS011;3811;49.006;12.076;2023-08-06T03:59:48;5.53;;;3.90;;
7539;SDS011;3811;49.006;12.076;2023-08-06T04:02:16;3.83;;;3.53;;
7539;SDS011;3811;49.006;12.076;2023-08-06T04:04:43;4.13;;;3.80;;
7539;SDS011;3811;49.006;12.076;2023-08-06T04:07:10;3.67;;;3.37;;
7539;SDS011;3811;49.006;12.076;2023-08-06T04:09:52;4.33;;;3.93;;
7539;SDS011;3811;49.006;12.076;2023-08-06T04:12:19;5.10;;;4.60;;
7539;SDS011;3811;49.006;12.076;2023-08-06T04:14:46;4.10;;;3.80;;
7539;SDS011;3811;49.006;12.076;2023-08-06T04:17:14;6.37;;;4.23;;
7539;SDS011;3811;49.006;12.076;2023-08-06T04:19:42;4.60;;;4.20;;
7539;SDS011;3811;49.006;12.076;2023-08-06T04:22:09;4.63;;;3.63;;
7539;SDS011;3811;49.006;12.076;2023-08-06T04:24:36;4.37;;;3.87;;
7539;SDS011;3811;49.006;12.076;2023-08-06T04:27:05;4.80;;;3.90;;
7539;SDS011;3811;49.006;12.076;2023-08-06T04:29:33;3.97;;;3.67;;
7539;SDS011;3811;49.006;12.076;2023-08-06T04:32:00;3.93;;;3.63;;
7539;SDS011;3811;49.006;12.076;2023-08-06T04:34:27;4.60;;;4.20;;
7539;SDS011;3811;49.006;12.076;2023-08-06T04:36:55;4.00;;;3.63;;
7539;SDS011;3811;49.006;12.076;2023-08-06T04:39:22;4.07;;;3.70;;
7539;SDS011;3811;49.006;12.076;2023-08-06T04:41:50;3.60;;;3.30;;
7539;SDS011;3811;49.006;12.076;2023-08-06T04:44:18;4.03;;;3.33;;
7539;SDS011;3811;49.006;12.076;2023-08-06T04:46:46;3.40;;;3.20;;
7539;SDS011;3811;49.006;12.076;2023-08-06T04:49:13;5.27;;;3.90;;
7539;SDS011;3811;49.006;12.076;2023-08-06T04:51:40;3.97;;;3.67;;
7539;SDS011;3811;49.006;12.076;2023-08-06T04:54:07;3.67;;;3.37;;
7539;SDS011;3811;49.006;12.076;2023-08-06T04:56:34;5.37;;;3.53;;
7539;SDS011;3811;49.006;12.076;2023-08-06T04:59:02;3.50;;;3.20;;
7539;SDS011;3811;49.006;12.076;2023-08-06T05:01:30;3.50;;;3.20;;
7539;SDS011;3811;49.006;12.076;2023-08-06T05:03:57;3.87;;;3.43;;
7539;SDS011;3811;49.006;12.076;2023-08-06T05:06:25;3.97;;;3.40;;
7539;SDS011;3811;49.006;12.076;2023-08-06T05:08:52;3.37;;;3.10;;
7539;SDS011;3811;49.006;12.076;2023-08-06T05:11:19;3.60;;;3.30;;
7539;SDS011;3811;49.006;12.076;2023-08-06T05:13:46;3.30;;;3.00;;
7539;SDS011;3811;49.006;12.076;2023-08-06T05:16:13;3.47;;;3.20;;
7539;SDS011;3811;49.006;12.076;2023-08-06T05:18:41;4.80;;;3.23;;
7539;SDS011;3811;49.006;12.076;2023-08-06T05:21:08;3.50;;;3.10;;
7539;SDS011;3811;49.006;12.076;2023-08-06T05:23:35;3.97;;;3.60;;
7539;SDS011;3811;49.006;12.076;2023-08-06T05:26:02;3.47;;;3.17;;
7539;SDS011;3811;49.006;12.076;2023-08-06T05:28:30;4.07;;;3.53;;
7539;SDS011;3811;49.006;12.076;2023-08-06T05:30:57;4.47;;;3.47;;
7539;SDS011;3811;49.006;12.076;2023-08-06T05:33:24;3.00;;;2.80;;
7539;SDS011;3811;49.006;12.076;2023-08-06T05:35:52;4.23;;;2.90;;
7539;SDS011;3811;49.006;12.076;2023-08-06T05:38:19;3.57;;;3.27;;
7539;SDS011;3811;49.006;12.076;2023-08-06T05:40:46;3.77;;;3.47;;
7539;SDS011;3811;49.006;12.076;2023-08-06T05:43:14;3.77;;;3.47;;
7539;SDS011;3811;49.006;12.076;2023-08-06T05:45:43;3.27;;;3.07;;
7539;SDS011;3811;49.006;12.076;2023-08-06T05:48:11;4.40;;;3.30;;
7539;SDS011;3811;49.006;12.076;2023-08-06T05:50:38;3.40;;;3.17;;
7539;SDS011;3811;49.006;12.076;2023-08-06T05:53:07;3.53;;;3.23;;
7539;SDS011;3811;49.006;12.076;2023-08-06T05:55:34;4.00;;;3.50;;
7539;SDS011;3811;49.006;12.076;2023-08-06T05:58:01;3.53;;;3.23;;
7539;SDS011;3811;49.006;12.076;2023-08-06T06:00:29;4.17;;;3.80;;
7539;SDS011;3811;49.006;12.076;2023-08-06T06:02:56;4.57;;;3.40;;
7539;SDS011;3811;49.006;12.076;2023-08-06T06:05:23;3.57;;;3.27;;
7539;SDS011;3811;49.006;12.076;2023-08-06T06:07:50;3.87;;;3.57;;
7539;SDS011;3811;49.006;12.076;2023-08-06T06:10:19;4.57;;;4.17;;
7539;SDS011;3811;49.006;12.076;2023-08-06T06:12:45;5.50;;;4.37;;
7539;SDS011;3811;49.006;12.076;2023-08-06T06:15:12;4.13;;;3.73;;
7539;SDS011;3811;49.006;12.076;2023-08-06T06:17:40;4.30;;;4.00;;
7539;SDS011;3811;49.006;12.076;2023-08-06T06:20:07;4.30;;;3.90;;
7539;SDS011;3811;49.006;12.076;2023-08-06T06:22:34;4.13;;;3.73;;
7539;SDS011;3811;49.006;12.076;2023-08-06T06:25:02;4.93;;;3.83;;
7539;SDS011;3811;49.006;12.076;2023-08-06T06:27:31;4.13;;;3.73;;
7539;SDS011;3811;49.006;12.076;2023-08-06T06:29:58;5.97;;;4.60;;
7539;SDS011;3811;49.006;12.076;2023-08-06T06:32:25;5.47;;;4.90;;
7539;SDS011;3811;49.006;12.076;2023-08-06T06:34:52;8.10;;;5.43;;
7539;SDS011;3811;49.006;12.076;2023-08-06T06:37:20;5.57;;;4.87;;
7539;SDS011;3811;49.006;12.076;2023-08-06T06:39:47;6.17;;;5.57;;
7539;SDS011;3811;49.006;12.076;2023-08-06T06:42:14;6.40;;;5.40;;
7539;SDS011;3811;49.006;12.076;2023-08-06T06:44:46;5.77;;;4.93;;
7539;SDS011;3811;49.006;12.076;2023-08-06T06:47:14;6.23;;;5.33;;
7539;SDS011;3811;49.006;12.076;2023-08-06T06:49:41;7.03;;;5.17;;
7539;SDS011;3811;49.006;12.076;2023-08-06T06:52:08;5.33;;;4.67;;
7539;SDS011;3811;49.006;12.076;2023-08-06T06:54:36;6.13;;;5.13;;
7539;SDS011;3811;49.006;12.076;2023-08-06T06:57:04;5.33;;;4.93;;
7539;SDS011;3811;49.006;12.076;2023-08-06T06:59:31;7.93;;;4.93;;
7539;SDS011;3811;49.006;12.076;2023-08-06T07:02:00;5.13;;;4.73;;
7539;SDS011;3811;49.006;12.076;2023-08-06T07:04:27;5.63;;;5.10;;
7539;SDS011;3811;49.006;12.076;2023-08-06T07:06:54;5.30;;;4.80;;
7539;SDS011;3811;49.006;12.076;2023-08-06T07:09:22;4.80;;;4.40;;
7539;SDS011;3811;49.006;12.076;2023-08-06T07:11:49;5.33;;;4.70;;
7539;SDS011;3811;49.006;12.076;2023-08-06T07:14:16;4.90;;;4.50;;
7539;SDS011;3811;49.006;12.076;2023-08-06T07:16:43;4.97;;;4.30;;
7539;SDS011;3811;49.006;12.076;2023-08-06T07:19:12;5.17;;;4.67;;
7539;SDS011;3811;49.006;12.076;2023-08-06T07:21:39;4.43;;;4.03;;
7539;SDS011;3811;49.006;12.076;2023-08-06T07:24:06;4.43;;;4.03;;
7539;SDS011;3811;49.006;12.076;2023-08-06T07:26:33;3.90;;;3.60;;
7539;SDS011;3811;49.006;12.076;2023-08-06T07:29:01;4.00;;;3.70;;
7539;SDS011;3811;49.006;12.076;2023-08-06T07:31:28;3.63;;;3.27;;
7539;SDS011;3811;49.006;12.076;2023-08-06T07:33:55;3.30;;;3.00;;
7539;SDS011;3811;49.006;12.076;2023-08-06T07:36:24;3.37;;;3.07;;
7539;SDS011;3811;49.006;12.076;2023-08-06T07:38:51;3.23;;;2.93;;
7539;SDS011;3811;49.006;12.076;2023-08-06T07:41:21;3.20;;;2.97;;
7539;SDS011;3811;49.006;12.076;2023-08-06T07:43:48;4.50;;;2.93;;
7539;SDS011;3811;49.006;12.076;2023-08-06T07:46:15;3.47;;;2.80;;
7539;SDS011;3811;49.006;12.076;2023-08-06T07:48:43;3.40;;;2.80;;
7539;SDS011;3811;49.006;12.076;2023-08-06T07:51:10;2.80;;;2.30;;
7539;SDS011;3811;49.006;12.076;2023-08-06T07:53:39;2.73;;;2.53;;
7539;SDS011;3811;49.006;12.076;2023-08-06T07:56:06;2.80;;;2.60;;
7539;SDS011;3811;49.006;12.076;2023-08-06T07:58:33;2.10;;;2.00;;
7539;SDS011;3811;49.006;12.076;2023-08-06T08:01:00;2.50;;;2.30;;
7539;SDS011;3811;49.006;12.076;2023-08-06T08:03:28;2.00;;;1.90;;
7539;SDS011;3811;49.006;12.076;2023-08-06T08:05:55;1.80;;;1.70;;
7539;SDS011;3811;49.006;12.076;2023-08-06T08:08:24;3.53;;;2.00;;
7539;SDS011;3811;49.006;12.076;2023-08-06T08:10:53;2.73;;;1.90;;
7539;SDS011;3811;49.006;12.076;2023-08-06T08:13:21;3.10;;;1.90;;
7539;SDS011;3811;49.006;12.076;2023-08-06T08:15:49;2.50;;;2.30;;
7539;SDS011;3811;49.006;12.076;2023-08-06T08:18:16;3.30;;;1.90;;
7539;SDS011;3811;49.006;12.076;2023-08-06T08:20:44;2.40;;;2.20;;
7539;SDS011;3811;49.006;12.076;2023-08-06T08:23:11;2.00;;;1.90;;
7539;SDS011;3811;49.006;12.076;2023-08-06T08:25:38;2.20;;;1.93;;
7539;SDS011;3811;49.006;12.076;2023-08-06T08:28:07;3.33;;;2.10;;
7539;SDS011;3811;49.006;12.076;2023-08-06T08:30:34;2.93;;;2.20;;
7539;SDS011;3811;49.006;12.076;2023-08-06T08:33:01;2.80;;;2.60;;
7539;SDS011;3811;49.006;12.076;2023-08-06T08:35:29;3.30;;;2.30;;
7539;SDS011;3811;49.006;12.076;2023-08-06T08:37:56;3.43;;;2.77;;
7539;SDS011;3811;49.006;12.076;2023-08-06T08:40:23;2.90;;;2.37;;
7539;SDS011;3811;49.006;12.076;2023-08-06T08:42:57;2.50;;;2.30;;
7539;SDS011;3811;49.006;12.076;2023-08-06T08:45:28;2.37;;;2.20;;
7539;SDS011;3811;49.006;12.076;2023-08-06T08:47:56;2.70;;;2.17;;
7539;SDS011;3811;49.006;12.076;2023-08-06T08:50:23;1.73;;;1.63;;
7539;SDS011;3811;49.006;12.076;2023-08-06T08:52:50;1.70;;;1.60;;
7539;SDS011;3811;49.006;12.076;2023-08-06T08:55:17;2.00;;;1.70;;
7539;SDS011;3811;49.006;12.076;2023-08-06T08:57:46;3.37;;;1.73;;
7539;SDS011;3811;49.006;12.076;2023-08-06T09:00:13;1.80;;;1.70;;
7539;SDS011;3811;49.006;12.076;2023-08-06T09:02:42;2.73;;;1.80;;
7539;SDS011;3811;49.006;12.076;2023-08-06T09:05:11;1.97;;;1.60;;
7539;SDS011;3811;49.006;12.076;2023-08-06T09:07:39;1.67;;;1.57;;
7539;SDS011;3811;49.006;12.076;2023-08-06T09:10:10;1.50;;;1.40;;
7539;SDS011;3811;49.006;12.076;2023-08-06T09:12:38;1.50;;;1.40;;
7539;SDS011;3811;49.006;12.076;2023-08-06T09:15:06;1.50;;;1.40;;
7539;SDS011;3811;49.006;12.076;2023-08-06T09:17:33;2.60;;;1.60;;
7539;SDS011;3811;49.006;12.076;2023-08-06T09:20:10;1.40;;;1.30;;
7539;SDS011;3811;49.006;12.076;2023-08-06T09:22:38;1.83;;;1.57;;
7539;SDS011;3811;49.006;12.076;2023-08-06T09:25:06;2.80;;;1.50;;
7539;SDS011;3811;49.006;12.076;2023-08-06T09:27:35;1.30;;;1.20;;
7539;SDS011;3811;49.006;12.076;2023-08-06T09:30:03;1.50;;;1.17;;
7539;SDS011;3811;49.006;12.076;2023-08-06T09:32:41;1.37;;;1.27;;
7539;SDS011;3811;49.006;12.076;2023-08-06T09:35:16;3.90;;;1.43;;
7539;SDS011;3811;49.006;12.076;2023-08-06T09:37:43;1.20;;;1.13;;
7539;SDS011;3811;49.006;12.076;2023-08-06T09:40:27;1.50;;;1.40;;
7539;SDS011;3811;49.006;12.076;2023-08-06T09:42:54;1.20;;;1.20;;
7539;SDS011;3811;49.006;12.076;2023-08-06T09:45:21;1.20;;;1.20;;
7539;SDS011;3811;49.006;12.076;2023-08-06T09:47:48;1.30;;;1.20;;
7539;SDS011;3811;49.006;12.076;2023-08-06T09:50:18;1.20;;;1.10;;
7539;SDS011;3811;49.006;12.076;2023-08-06T09:52:45;0.97;;;0.97;;
7539;SDS011;3811;49.006;12.076;2023-08-06T09:55:13;0.90;;;0.67;;
7539;SDS011;3811;49.006;12.076;2023-08-06T09:57:40;0.83;;;0.83;;
7539;SDS011;3811;49.006;12.076;2023-08-06T10:00:08;1.00;;;0.87;;
7539;SDS011;3811;49.006;12.076;2023-08-06T10:02:38;2.07;;;1.10;;
7539;SDS011;3811;49.006;12.076;2023-08-06T10:05:06;2.73;;;1.20;;
7539;SDS011;3811;49.006;12.076;2023-08-06T10:07:36;2.87;;;1.13;;
7539;SDS011;3811;49.006;12.076;2023-08-06T10:10:04;2.60;;;1.20;;
7539;SDS011;3811;49.006;12.076;2023-08-06T10:12:32;1.20;;;1.20;;
7539;SDS011;3811;49.006;12.076;2023-08-06T10:15:03;1.40;;;1.30;;
7539;SDS011;3811;49.006;12.076;2023-08-06T10:17:33;2.77;;;1.57;;
7539;SDS011;3811;49.006;12.076;2023-08-06T10:20:02;1.87;;;1.40;;
7539;SDS011;3811;49.006;12.076;2023-08-06T10:22:32;1.30;;;1.20;;
7539;SDS011;3811;49.006;12.076;2023-08-06T10:25:02;1.37;;;1.27;;
7539;SDS011;3811;49.006;12.076;2023-08-06T10:27:32;1.60;;;1.50;;
7539;SDS011;3811;49.006;12.076;2023-08-06T10:32:50;1.37;;;1.00;;
7539;SDS011;3811;49.006;12.076;2023-08-06T10:35:29;1.30;;;1.30;;
7539;SDS011;3811;49.006;12.076;2023-08-06T10:38:03;1.20;;;1.10;;
7539;SDS011;3811;49.006;12.076;2023-08-06T10:40:33;1.10;;;0.80;;
7539;SDS011;3811;49.006;12.076;2023-08-06T10:43:00;0.87;;;0.87;;
7539;SDS011;3811;49.006;12.076;2023-08-06T10:45:28;1.37;;;0.80;;
7539;SDS011;3811;49.006;12.076;2023-08-06T10:47:56;0.73;;;0.73;;
7539;SDS011;3811;49.006;12.076;2023-08-06T10:50:23;0.90;;;0.90;;
7539;SDS011;3811;49.006;12.076;2023-08-06T10:52:51;0.83;;;0.83;;
7539;SDS011;3811;49.006;12.076;2023-08-06T10:55:22;1.43;;;0.80;;
7539;SDS011;3811;49.006;12.076;2023-08-06T10:57:52;1.30;;;1.20;;
7539;SDS011;3811;49.006;12.076;2023-08-06T11:00:20;1.80;;;1.33;;
7539;SDS011;3811;49.006;12.076;2023-08-06T11:02:47;0.80;;;0.80;;
7539;SDS011;3811;49.006;12.076;2023-08-06T11:05:15;0.90;;;0.90;;
7539;SDS011;3811;49.006;12.076;2023-08-06T11:07:43;2.67;;;1.00;;
7539;SDS011;3811;49.006;12.076;2023-08-06T11:10:11;1.10;;;0.83;;
7539;SDS011;3811;49.006;12.076;2023-08-06T11:12:39;1.70;;;0.70;;
7539;SDS011;3811;49.006;12.076;2023-08-06T11:15:08;1.47;;;0.70;;
7539;SDS011;3811;49.006;12.076;2023-08-06T11:17:36;0.60;;;0.60;;
7539;SDS011;3811;49.006;12.076;2023-08-06T11:20:04;1.17;;;0.50;;
7539;SDS011;3811;49.006;12.076;2023-08-06T11:22:31;0.77;;;0.77;;
7539;SDS011;3811;49.006;12.076;2023-08-06T11:24:59;0.50;;;0.50;;
7539;SDS011;3811;49.006;12.076;2023-08-06T11:27:27;0.60;;;0.60;;
7539;SDS011;3811;49.006;12.076;2023-08-06T11:29:54;0.83;;;0.43;;
7539;SDS011;3811;49.006;12.076;2023-08-06T11:32:23;0.63;;;0.60;;
7539;SDS011;3811;49.006;12.076;2023-08-06T11:34:50;0.50;;;0.50;;
7539;SDS011;3811;49.006;12.076;2023-08-06T11:37:20;0.90;;;0.90;;
7539;SDS011;3811;49.006;12.076;2023-08-06T11:39:49;1.53;;;1.07;;
7539;SDS011;3811;49.006;12.076;2023-08-06T11:42:17;0.70;;;0.70;;
7539;SDS011;3811;49.006;12.076;2023-08-06T11:44:45;2.00;;;1.03;;
7539;SDS011;3811;49.006;12.076;2023-08-06T11:47:13;2.97;;;1.30;;
7539;SDS011;3811;49.006;12.076;2023-08-06T11:49:43;0.60;;;0.60;;
7539;SDS011;3811;49.006;12.076;2023-08-06T11:52:13;1.13;;;0.60;;
7539;SDS011;3811;49.006;12.076;2023-08-06T11:54:41;0.53;;;0.53;;
7539;SDS011;3811;49.006;12.076;2023-08-06T11:57:08;0.47;;;0.47;;
7539;SDS011;3811;49.006;12.076;2023-08-06T11:59:36;0.50;;;0.50;;
7539;SDS011;3811;49.006;12.076;2023-08-06T12:02:04;0.40;;;0.40;;
7539;SDS011;3811;49.006;12.076;2023-08-06T12:04:31;0.50;;;0.50;;
7539;SDS011;3811;49.006;12.076;2023-08-06T12:07:06;0.43;;;0.43;;
7539;SDS011;3811;49.006;12.076;2023-08-06T12:09:33;0.40;;;0.40;;
7539;SDS011;3811;49.006;12.076;2023-08-06T12:12:03;0.40;;;0.40;;
7539;SDS011;3811;49.006;12.076;2023-08-06T12:14:30;0.70;;;0.53;;
7539;SDS011;3811;49.006;12.076;2023-08-06T12:16:58;0.50;;;0.50;;
7539;SDS011;3811;49.006;12.076;2023-08-06T12:19:25;0.20;;;0.20;;
7539;SDS011;3811;49.006;12.076;2023-08-06T12:21:52;0.73;;;0.40;;
7539;SDS011;3811;49.006;12.076;2023-08-06T12:24:21;0.20;;;0.20;;
7539;SDS011;3811;49.006;12.076;2023-08-06T12:26:48;0.40;;;0.40;;
7539;SDS011;3811;49.006;12.076;2023-08-06T12:29:15;0.40;;;0.40;;
7539;SDS011;3811;49.006;12.076;2023-08-06T12:31:42;0.33;;;0.33;;
7539;SDS011;3811;49.006;12.076;2023-08-06T12:34:09;1.03;;;0.50;;
7539;SDS011;3811;49.006;12.076;2023-08-06T12:36:36;0.50;;;0.50;;
7539;SDS011;3811;49.006;12.076;2023-08-06T12:39:03;0.50;;;0.50;;
7539;SDS011;3811;49.006;12.076;2023-08-06T12:41:32;0.57;;;0.57;;
7539;SDS011;3811;49.006;12.076;2023-08-06T12:43:59;0.33;;;0.33;;
7539;SDS011;3811;49.006;12.076;2023-08-06T12:46:28;0.93;;;0.40;;
7539;SDS011;3811;49.006;12.076;2023-08-06T12:48:55;0.27;;;0.27;;
7539;SDS011;3811;49.006;12.076;2023-08-06T12:51:23;0.37;;;0.37;;
7539;SDS011;3811;49.006;12.076;2023-08-06T12:53:51;0.57;;;0.50;;
7539;SDS011;3811;49.006;12.076;2023-08-06T12:56:18;0.80;;;0.40;;
7539;SDS011;3811;49.006;12.076;2023-08-06T12:58:46;0.40;;;0.40;;
7539;SDS011;3811;49.006;12.076;2023-08-06T13:01:14;0.83;;;0.67;;
7539;SDS011;3811;49.006;12.076;2023-08-06T13:03:40;0.40;;;0.40;;
7539;SDS011;3811;49.006;12.076;2023-08-06T13:06:08;0.50;;;0.50;;
7539;SDS011;3811;49.006;12.076;2023-08-06T13:08:36;0.43;;;0.43;;
7539;SDS011;3811;49.006;12.076;2023-08-06T13:11:03;0.60;;;0.60;;
7539;SDS011;3811;49.006;12.076;2023-08-06T13:13:31;0.40;;;0.40;;
7539;SDS011;3811;49.006;12.076;2023-08-06T13:15:59;0.30;;;0.30;;
7539;SDS011;3811;49.006;12.076;2023-08-06T13:18:27;0.30;;;0.30;;
7539;SDS011;3811;49.006;12.076;2023-08-06T13:20:54;0.40;;;0.40;;
7539;SDS011;3811;49.006;12.076;2023-08-06T13:23:21;0.40;;;0.40;;
7539;SDS011;3811;49.006;12.076;2023-08-06T13:25:48;0.20;;;0.20;;
7539;SDS011;3811;49.006;12.076;2023-08-06T13:28:16;1.70;;;0.67;;
7539;SDS011;3811;49.006;12.076;2023-08-06T13:30:43;0.30;;;0.30;;
7539;SDS011;3811;49.006;12.076;2023-08-06T13:33:11;0.47;;;0.47;;
7539;SDS011;3811;49.006;12.076;2023-08-06T13:35:39;0.40;;;0.40;;
7539;SDS011;3811;49.006;12.076;2023-08-06T13:38:06;0.53;;;0.50;;
7539;SDS011;3811;49.006;12.076;2023-08-06T13:40:33;0.40;;;0.40;;
7539;SDS011;3811;49.006;12.076;2023-08-06T13:43:01;0.30;;;0.30;;
7539;SDS011;3811;49.006;12.076;2023-08-06T13:45:28;0.20;;;0.20;;
7539;SDS011;3811;49.006;12.076;2023-08-06T13:48:00;0.40;;;0.40;;
7539;SDS011;3811;49.006;12.076;2023-08-06T13:50:30;0.70;;;0.33;;
7539;SDS011;3811;49.006;12.076;2023-08-06T13:52:57;0.33;;;0.33;;
7539;SDS011;3811;49.006;12.076;2023-08-06T13:55:24;0.40;;;0.40;;
7539;SDS011;3811;49.006;12.076;2023-08-06T13:57:52;0.20;;;0.20;;
7539;SDS011;3811;49.006;12.076;2023-08-06T14:00:19;0.23;;;0.23;;
7539;SDS011;3811;49.006;12.076;2023-08-06T14:02:46;0.30;;;0.30;;
7539;SDS011;3811;49.006;12.076;2023-08-06T14:05:13;1.17;;;0.47;;
7539;SDS011;3811;49.006;12.076;2023-08-06T14:07:42;1.70;;;0.37;;
7539;SDS011;3811;49.006;12.076;2023-08-06T14:10:09;0.47;;;0.20;;
7539;SDS011;3811;49.006;12.076;2023-08-06T14:12:36;0.20;;;0.20;;
7539;SDS011;3811;49.006;12.076;2023-08-06T14:15:03;0.30;;;0.30;;
7539;SDS011;3811;49.006;12.076;2023-08-06T14:17:31;0.93;;;0.20;;
7539;SDS011;3811;49.006;12.076;2023-08-06T14:19:58;0.30;;;0.30;;
7539;SDS011;3811;49.006;12.076;2023-08-06T14:22:25;0.40;;;0.27;;
7539;SDS011;3811;49.006;12.076;2023-08-06T14:24:54;0.23;;;0.23;;
7539;SDS011;3811;49.006;12.076;2023-08-06T14:27:21;0.30;;;0.30;;
7539;SDS011;3811;49.006;12.076;2023-08-06T14:29:48;1.40;;;0.50;;
7539;SDS011;3811;49.006;12.076;2023-08-06T14:32:15;0.20;;;0.20;;
7539;SDS011;3811;49.006;12.076;2023-08-06T14:34:44;0.30;;;0.30;;
7539;SDS011;3811;49.006;12.076;2023-08-06T14:37:11;0.30;;;0.30;;
7539;SDS011;3811;49.006;12.076;2023-08-06T14:39:38;2.00;;;0.43;;
7539;SDS011;3811;49.006;12.076;2023-08-06T14:42:07;0.47;;;0.40;;
7539;SDS011;3811;49.006;12.076;2023-08-06T14:44:34;0.30;;;0.30;;
7539;SDS011;3811;49.006;12.076;2023-08-06T14:47:02;0.50;;;0.30;;
7539;SDS011;3811;49.006;12.076;2023-08-06T14:49:29;0.30;;;0.30;;
7539;SDS011;3811;49.006;12.076;2023-08-06T14:51:56;0.30;;;0.30;;
7539;SDS011;3811;49.006;12.076;2023-08-06T14:54:25;0.37;;;0.37;;
7539;SDS011;3811;49.006;12.076;2023-08-06T14:56:52;0.40;;;0.40;;
7539;SDS011;3811;49.006;12.076;2023-08-06T14:59:21;1.80;;;0.80;;
7539;SDS011;3811;49.006;12.076;2023-08-06T15:01:48;0.40;;;0.40;;
7539;SDS011;3811;49.006;12.076;2023-08-06T15:04:16;1.13;;;0.40;;
7539;SDS011;3811;49.006;12.076;2023-08-06T15:06:44;0.30;;;0.30;;
7539;SDS011;3811;49.006;12.076;2023-08-06T15:09:11;0.40;;;0.40;;